createdAt,value
2022-08-05T00:00:16.049Z,55.57
2022-08-05T00:02:50.808Z,55.69
2022-08-05T00:06:02.984Z,55.79
2022-08-05T00:08:30.853Z,55.95
2022-08-05T00:11:00.496Z,56.35
2022-08-05T00:13:38.066Z,56.35
2022-08-05T00:16:12.251Z,56.40
2022-08-05T00:18:44.817Z,56.49
2022-08-05T00:21:14.417Z,56.86
2022-08-05T00:23:46.816Z,56.80
2022-08-05T00:26:22.403Z,57.11
2022-08-05T00:28:51.412Z,58.00
2022-08-05T00:31:53.590Z,58.36
2022-08-05T00:34:56.408Z,58.65
2022-08-05T00:37:12.745Z,59.12
2022-08-05T00:39:44.357Z,59.73
2022-08-05T00:42:32.788Z,59.91
2022-08-05T00:45:00.960Z,60.54
2022-08-05T00:47:53.267Z,60.36
2022-08-05T00:50:18.666Z,60.72
2022-08-05T00:52:49.202Z,60.98
2022-08-05T00:55:17.454Z,61.74
2022-08-05T00:57:58.751Z,62.15
2022-08-05T01:00:28.299Z,62.63
2022-08-05T01:02:57.004Z,62.66
2022-08-05T01:05:27.485Z,62.60
2022-08-05T01:08:40.885Z,63.21
2022-08-05T01:10:52.467Z,63.88
2022-08-05T01:13:27.464Z,64.68
2022-08-05T01:16:26.139Z,65.14
2022-08-05T01:19:01.967Z,65.09
2022-08-05T01:21:50.486Z,64.97
2022-08-05T01:24:34.219Z,65.52
2022-08-05T01:27:19.069Z,66.03
2022-08-05T01:29:54.625Z,66.40
2022-08-05T01:32:27.709Z,66.39
2022-08-05T01:34:59.895Z,66.85
2022-08-05T01:37:36.745Z,67.33
2022-08-05T01:40:14.072Z,67.88
2022-08-05T01:42:46.657Z,68.04
2022-08-05T01:45:17.601Z,68.05
2022-08-05T01:47:54.598Z,68.02
2022-08-05T01:50:29.705Z,67.69
2022-08-05T01:53:01.881Z,68.05
2022-08-05T01:55:36.288Z,68.28
2022-08-05T01:58:11.255Z,68.82
2022-08-05T02:00:48.487Z,69.11
2022-08-05T02:03:24.189Z,69.60
2022-08-05T02:05:59.758Z,69.63
2022-08-05T02:08:31.217Z,70.18
2022-08-05T02:11:03.695Z,70.21
2022-08-05T02:13:53.495Z,70.40
2022-08-05T02:16:27.552Z,70.73
2022-08-05T02:18:57.394Z,70.72
2022-08-05T02:21:30.495Z,70.03
2022-08-05T02:24:19.810Z,70.00
2022-08-05T02:26:55.642Z,70.28
2022-08-05T02:29:58.937Z,70.54
2022-08-05T02:32:24.239Z,70.83
2022-08-05T02:35:09.723Z,70.94
2022-08-05T02:37:47.798Z,71.30
2022-08-05T02:40:24.312Z,71.50
2022-08-05T02:42:55.354Z,70.99
2022-08-05T02:45:25.410Z,71.26
2022-08-05T02:48:06.505Z,71.73
2022-08-05T02:50:38.361Z,72.13
2022-08-05T02:53:19.075Z,72.49
2022-08-05T02:56:00.141Z,72.96
2022-08-05T02:58:31.783Z,73.13
2022-08-05T03:01:02.679Z,73.62
2022-08-05T03:04:02.867Z,73.74
2022-08-05T03:06:56.735Z,73.70
2022-08-05T03:09:15.868Z,73.95
2022-08-05T03:11:57.284Z,74.19
2022-08-05T03:14:26.840Z,74.18
2022-08-05T03:16:54.904Z,74.19
2022-08-05T03:19:33.931Z,74.12
2022-08-05T03:22:04.709Z,74.66
2022-08-05T03:24:33.774Z,74.60
2022-08-05T03:27:03.245Z,75.00
2022-08-05T03:29:45.185Z,74.89
2022-08-05T03:32:31.103Z,74.75
2022-08-05T03:35:01.355Z,74.06
2022-08-05T03:37:44.763Z,74.65
2022-08-05T03:40:15.277Z,75.33
2022-08-05T03:42:52.925Z,75.56
2022-08-05T03:45:23.071Z,75.91
2022-08-05T03:47:52.011Z,75.70
2022-08-05T03:50:30.208Z,75.83
2022-08-05T03:55:50.630Z,76.28
2022-08-05T03:56:11.079Z,76.47
2022-08-05T03:58:44.704Z,76.48
2022-08-05T04:01:16.447Z,76.28
2022-08-05T04:04:08.922Z,76.12
2022-08-05T04:06:47.939Z,75.49
2022-08-05T04:09:20.312Z,75.33
2022-08-05T04:11:54.312Z,75.08
2022-08-05T04:14:29.490Z,74.97
2022-08-05T04:16:59.475Z,74.85
2022-08-05T04:19:27.678Z,74.46
2022-08-05T04:22:08.601Z,74.18
2022-08-05T04:24:44.150Z,73.80
2022-08-05T04:27:13.469Z,73.51
2022-08-05T04:29:41.699Z,72.60
2022-08-05T04:32:11.016Z,72.02
2022-08-05T04:34:42.929Z,71.18
2022-08-05T04:37:12.891Z,70.84
2022-08-05T04:39:41.017Z,68.57
2022-08-05T04:42:10.086Z,67.15
2022-08-05T04:44:39.135Z,67.00
2022-08-05T04:47:08.766Z,65.79
2022-08-05T04:50:01.958Z,65.07
2022-08-05T04:52:27.471Z,65.04
2022-08-05T04:54:57.279Z,64.88
2022-08-05T04:57:28.975Z,63.13
2022-08-05T04:59:58.882Z,61.26
2022-08-05T05:02:36.203Z,59.51
2022-08-05T05:05:25.995Z,57.85
2022-08-05T05:08:00.785Z,57.35
2022-08-05T05:10:29.622Z,56.20
2022-08-05T05:12:58.056Z,55.73
2022-08-05T05:15:56.740Z,54.35
2022-08-05T05:18:16.592Z,53.65
2022-08-05T05:20:59.363Z,52.92
2022-08-05T05:23:39.228Z,53.01
2022-08-05T05:26:17.817Z,52.04
2022-08-05T05:28:45.804Z,51.68
2022-08-05T05:31:13.889Z,51.45
2022-08-05T05:33:58.708Z,52.13
2022-08-05T05:36:29.823Z,50.37
2022-08-05T05:38:59.885Z,50.92
2022-08-05T05:41:40.874Z,50.05
2022-08-05T05:44:35.475Z,51.11
2022-08-05T05:47:04.300Z,49.23
2022-08-05T05:49:33.082Z,48.16
2022-08-05T05:52:01.428Z,49.09
2022-08-05T05:54:50.823Z,49.41
2022-08-05T05:57:19.649Z,49.05
2022-08-05T05:59:47.788Z,49.15
2022-08-05T06:02:17.249Z,46.78
2022-08-05T06:05:01.362Z,45.72
2022-08-05T06:07:41.887Z,45.09
2022-08-05T06:10:12.198Z,45.89
2022-08-05T06:12:42.296Z,47.11
2022-08-05T06:15:23.529Z,46.92
2022-08-05T06:17:54.200Z,47.12
2022-08-05T06:20:23.203Z,46.63
2022-08-05T06:22:51.258Z,45.18
2022-08-05T06:25:25.047Z,45.16
2022-08-05T06:28:10.685Z,43.96
2022-08-05T06:30:41.317Z,45.21
2022-08-05T06:33:10.032Z,42.98
2022-08-05T06:36:08.187Z,42.63
2022-08-05T06:38:36.170Z,42.85
2022-08-05T06:41:07.897Z,41.50
2022-08-05T06:43:57.506Z,40.93
2022-08-05T06:46:30.320Z,40.93
2022-08-05T06:48:59.688Z,40.61
2022-08-05T06:51:31.094Z,40.70
2022-08-05T06:54:00.027Z,39.94
2022-08-05T06:56:29.764Z,41.03
2022-08-05T06:58:57.930Z,39.36
2022-08-05T07:01:27.596Z,39.27
2022-08-05T07:04:00.201Z,38.89
2022-08-05T07:06:29.206Z,38.34
2022-08-05T07:08:59.054Z,38.19
2022-08-05T07:11:28.796Z,37.71
2022-08-05T07:14:20.507Z,37.25
2022-08-05T07:18:08.590Z,37.23
2022-08-05T07:22:37.454Z,37.06
2022-08-05T07:25:23.831Z,36.91
2022-08-05T07:27:58.634Z,36.06
2022-08-05T07:30:33.654Z,35.46
2022-08-05T07:33:08.807Z,35.56
2022-08-05T07:36:05.387Z,36.35
2022-08-05T07:38:32.001Z,36.75
2022-08-05T07:42:08.760Z,35.54
2022-08-05T07:43:56.116Z,35.54
2022-08-05T07:46:26.975Z,35.21
2022-08-05T07:49:02.857Z,34.58
2022-08-05T07:51:36.771Z,33.94
2022-08-05T07:54:08.466Z,34.02
2022-08-05T07:56:39.152Z,34.33
2022-08-05T07:59:38.716Z,34.49
2022-08-05T08:02:16.809Z,33.67
2022-08-05T08:04:46.508Z,33.56
2022-08-05T08:07:14.995Z,33.85
2022-08-05T08:09:43.704Z,33.22
2022-08-05T08:12:35.457Z,34.01
2022-08-05T08:15:03.459Z,33.66
2022-08-05T08:17:35.268Z,33.60
2022-08-05T08:20:22.414Z,32.63
2022-08-05T08:22:55.788Z,33.47
2022-08-05T08:25:26.875Z,32.62
2022-08-05T08:28:18.928Z,31.85
2022-08-05T08:31:00.759Z,31.37
2022-08-05T08:33:30.454Z,31.28
2022-08-05T08:36:37.510Z,30.90
2022-08-05T08:38:55.709Z,30.91
2022-08-05T08:41:52.183Z,30.81
2022-08-05T08:45:20.786Z,31.04
2022-08-05T08:47:22.181Z,30.85
2022-08-05T08:50:23.021Z,30.37
2022-08-05T08:52:51.430Z,30.86
2022-08-05T08:56:03.002Z,31.07
2022-08-05T08:58:10.568Z,29.58
2022-08-05T09:00:41.710Z,30.70
2022-08-05T09:03:11.320Z,30.40
2022-08-05T09:06:07.429Z,29.33
2022-08-05T09:08:30.321Z,29.36
2022-08-05T09:10:58.640Z,29.28
2022-08-05T09:13:31.698Z,29.73
2022-08-05T09:16:00.249Z,29.75
2022-08-05T09:18:28.410Z,29.59
2022-08-05T09:20:59.247Z,29.09
2022-08-05T09:23:28.848Z,29.01
2022-08-05T09:26:09.953Z,29.73
2022-08-05T09:28:40.091Z,30.29
2022-08-05T09:31:22.173Z,30.03
2022-08-05T09:34:01.614Z,30.19
2022-08-05T09:36:54.700Z,29.28
2022-08-05T09:39:27.871Z,29.22
2022-08-05T09:42:21.225Z,29.34
2022-08-05T09:44:56.379Z,30.00
2022-08-05T09:47:49.003Z,30.01
2022-08-05T09:50:18.119Z,29.76
2022-08-05T09:53:04.934Z,30.29
2022-08-05T09:55:56.198Z,30.95
2022-08-05T09:58:26.527Z,30.15
2022-08-05T10:01:01.008Z,29.33
2022-08-05T10:03:56.768Z,29.38
2022-08-05T10:06:21.002Z,30.58
2022-08-05T10:08:55.334Z,29.69
2022-08-05T10:11:24.102Z,28.44
2022-08-05T10:13:59.485Z,29.41
2022-08-05T10:16:34.036Z,28.27
2022-08-05T10:19:08.593Z,28.51
2022-08-05T10:21:41.068Z,29.00
2022-08-05T10:24:13.751Z,28.47
2022-08-05T10:26:51.441Z,28.53
2022-08-05T10:29:24.023Z,28.42
2022-08-05T10:32:52.341Z,26.91
2022-08-05T10:35:00.954Z,28.67
2022-08-05T10:37:40.012Z,27.19
2022-08-05T10:40:28.130Z,27.73
2022-08-05T10:43:02.654Z,27.81
2022-08-05T10:45:40.527Z,27.44
2022-08-05T10:48:38.446Z,27.87
2022-08-05T10:51:28.458Z,27.09
2022-08-05T10:54:01.716Z,26.69
2022-08-05T10:56:46.987Z,27.53
2022-08-05T11:00:01.849Z,26.99
2022-08-05T11:02:14.262Z,27.01
2022-08-05T11:04:57.423Z,27.14
2022-08-05T11:07:32.930Z,26.55
2022-08-05T11:10:27.455Z,26.95
2022-08-05T11:12:58.794Z,26.35
2022-08-05T11:16:00.326Z,26.00
2022-08-05T11:18:29.958Z,27.57
2022-08-05T11:21:06.356Z,26.80
2022-08-05T11:24:02.807Z,27.12
2022-08-05T11:26:33.483Z,27.14
2022-08-05T11:29:12.170Z,26.46
2022-08-05T11:31:54.299Z,27.49
2022-08-05T11:34:39.731Z,27.37
2022-08-05T11:38:30.468Z,26.09
2022-08-05T11:40:03.102Z,26.93
2022-08-05T11:42:37.991Z,27.95
2022-08-05T11:45:14.479Z,27.76
2022-08-05T11:47:54.870Z,27.58
2022-08-05T11:50:23.318Z,27.75
2022-08-05T11:52:57.668Z,27.37
2022-08-05T11:55:31.812Z,27.10
2022-08-05T11:58:10.760Z,27.20
2022-08-05T12:00:44.367Z,28.93
2022-08-05T12:03:28.448Z,27.78
2022-08-05T12:05:59.853Z,28.86
2022-08-05T12:08:28.003Z,28.10
2022-08-05T12:11:05.419Z,28.63
2022-08-05T12:13:49.650Z,27.83
2022-08-05T12:16:25.677Z,28.12
2022-08-05T12:18:55.536Z,28.81
2022-08-05T12:21:26.931Z,28.70
2022-08-05T12:24:05.194Z,27.70
2022-08-05T12:26:36.858Z,28.49
2022-08-05T12:29:09.334Z,28.14
2022-08-05T12:31:42.466Z,29.02
2022-08-05T12:34:21.108Z,28.68
2022-08-05T12:36:51.151Z,29.09
2022-08-05T12:39:20.349Z,29.70
2022-08-05T12:41:48.741Z,30.23
2022-08-05T12:44:32.572Z,29.08
2022-08-05T12:47:03.909Z,29.42
2022-08-05T12:50:03.253Z,28.20
2022-08-05T12:52:39.487Z,28.37
2022-08-05T12:55:22.075Z,28.82
2022-08-05T12:58:50.870Z,28.80
2022-08-05T13:02:02.931Z,27.91
2022-08-05T13:03:33.741Z,28.66
2022-08-05T13:06:08.394Z,28.76
2022-08-05T13:08:40.216Z,27.98
2022-08-05T13:11:09.014Z,28.44
2022-08-05T13:14:06.643Z,29.35
2022-08-05T13:16:28.186Z,29.82
2022-08-05T13:18:58.877Z,29.23
2022-08-05T13:21:28.326Z,30.44
2022-08-05T13:24:08.892Z,28.50
2022-08-05T13:26:37.139Z,28.92
2022-08-05T13:29:05.945Z,28.72
2022-08-05T13:32:04.179Z,29.22
2022-08-05T13:34:25.863Z,28.94
2022-08-05T13:36:55.600Z,28.22
2022-08-05T13:40:14.394Z,27.62
2022-08-05T13:42:14.630Z,27.90
2022-08-05T13:44:45.898Z,28.84
2022-08-05T13:47:34.818Z,28.46
2022-08-05T13:50:06.852Z,28.90
2022-08-05T13:52:39.413Z,29.10
2022-08-05T13:55:10.016Z,28.88
2022-08-05T13:57:50.702Z,29.66
2022-08-05T14:00:26.903Z,28.60
2022-08-05T14:02:56.771Z,28.51
2022-08-05T14:05:47.892Z,29.23
2022-08-05T14:08:21.253Z,29.11
2022-08-05T14:11:03.190Z,29.68
2022-08-05T14:13:44.245Z,29.35
2022-08-05T14:16:16.964Z,30.09
2022-08-05T14:18:47.163Z,29.66
2022-08-05T14:22:07.883Z,29.99
2022-08-05T14:24:05.634Z,29.15
2022-08-05T14:26:38.726Z,29.56
2022-08-05T14:29:15.954Z,29.81
2022-08-05T14:32:03.061Z,29.56
2022-08-05T14:34:35.427Z,29.34
2022-08-05T14:37:05.933Z,28.67
2022-08-05T14:39:49.692Z,29.87
2022-08-05T14:42:23.505Z,29.80
2022-08-05T14:44:53.766Z,30.28
2022-08-05T14:47:58.314Z,30.17
2022-08-05T14:50:18.117Z,30.35
2022-08-05T14:52:57.779Z,30.13
2022-08-05T14:55:38.536Z,30.06
2022-08-05T14:58:11.927Z,30.14
2022-08-05T15:00:59.770Z,30.22
2022-08-05T15:03:34.017Z,30.01
2022-08-05T15:06:15.391Z,30.00
2022-08-05T15:08:59.688Z,29.74
2022-08-05T15:11:51.752Z,30.62
2022-08-05T15:14:35.659Z,29.89
2022-08-05T15:17:10.038Z,29.79
2022-08-05T15:19:57.505Z,29.94
2022-08-05T15:22:27.299Z,30.46
2022-08-05T15:24:59.297Z,31.22
2022-08-05T15:27:32.105Z,30.45
2022-08-05T15:30:05.735Z,30.54
2022-08-05T15:32:33.839Z,30.26
2022-08-05T15:35:09.792Z,30.60
2022-08-05T15:38:34.854Z,30.75
2022-08-05T15:41:00.015Z,31.54
2022-08-05T15:43:19.787Z,31.20
2022-08-05T15:46:00.066Z,31.29
2022-08-05T15:48:30.060Z,31.72
2022-08-05T15:51:03.486Z,31.72
2022-08-05T15:53:38.522Z,31.68
2022-08-05T15:56:20.156Z,31.99
2022-08-05T15:58:48.689Z,32.05
2022-08-05T16:01:19.081Z,31.71
2022-08-05T16:03:50.810Z,32.12
2022-08-05T16:06:20.940Z,32.36
2022-08-05T16:08:55.266Z,32.90
2022-08-05T16:11:42.952Z,32.92
2022-08-05T16:14:17.529Z,32.22
2022-08-05T16:16:46.461Z,32.79
2022-08-05T16:19:18.809Z,32.38
2022-08-05T16:22:00.559Z,31.99
2022-08-05T16:24:39.879Z,32.77
2022-08-05T16:27:15.744Z,32.70
2022-08-05T16:29:50.097Z,32.37
2022-08-05T16:32:28.522Z,32.33
2022-08-05T16:34:58.750Z,32.80
2022-08-05T16:38:03.553Z,32.85
2022-08-05T16:40:24.840Z,32.73
2022-08-05T16:42:58.416Z,32.67
2022-08-05T16:46:04.819Z,32.91
2022-08-05T16:48:26.193Z,33.31
2022-08-05T16:51:02.128Z,33.00
2022-08-05T16:54:02.377Z,33.36
2022-08-05T16:56:20.061Z,33.47
2022-08-05T16:58:49.650Z,33.56
2022-08-05T17:01:18.794Z,33.72
2022-08-05T17:03:47.259Z,33.63
2022-08-05T17:06:16.774Z,33.80
2022-08-05T17:08:53.627Z,33.80
2022-08-05T17:11:23.910Z,34.26
2022-08-05T17:14:05.665Z,33.97
2022-08-05T17:16:36.433Z,36.27
2022-08-05T17:19:07.278Z,36.18
2022-08-05T17:21:36.944Z,37.33
2022-08-05T17:24:19.830Z,37.42
2022-08-05T17:26:55.369Z,37.63
2022-08-05T17:29:33.071Z,37.89
2022-08-05T17:32:02.313Z,38.27
2022-08-05T17:34:32.073Z,37.60
2022-08-05T17:37:00.739Z,38.08
2022-08-05T17:39:34.424Z,37.79
2022-08-05T17:42:18.348Z,38.08
2022-08-05T17:44:51.649Z,37.81
2022-08-05T17:47:22.238Z,38.26
2022-08-05T17:50:00.122Z,38.21
2022-08-05T17:52:33.393Z,38.63
2022-08-05T17:55:03.078Z,39.07
2022-08-05T17:57:31.420Z,39.31
2022-08-05T18:00:04.718Z,39.57
2022-08-05T18:02:34.262Z,39.42
2022-08-05T18:05:06.345Z,39.63
2022-08-05T18:07:41.147Z,39.71
2022-08-05T18:10:20.286Z,39.50
2022-08-05T18:12:49.739Z,40.00
2022-08-05T18:15:19.353Z,39.90
2022-08-05T18:17:59.195Z,40.31
2022-08-05T18:20:31.481Z,40.78
2022-08-05T18:23:09.546Z,40.79
2022-08-05T18:25:44.934Z,41.02
2022-08-05T18:28:16.433Z,41.53
2022-08-05T18:30:50.917Z,41.47
2022-08-05T18:33:22.506Z,41.75
2022-08-05T18:36:03.556Z,41.81
2022-08-05T18:38:35.983Z,42.19
2022-08-05T18:41:56.289Z,42.64
2022-08-05T18:43:52.793Z,42.96
2022-08-05T18:46:22.185Z,42.98
2022-08-05T18:48:54.409Z,43.09
2022-08-05T18:52:04.620Z,43.50
2022-08-05T18:54:28.589Z,43.90
2022-08-05T18:56:59.890Z,43.76
2022-08-05T18:59:42.694Z,44.01
2022-08-05T19:02:28.299Z,44.37
2022-08-05T19:06:06.183Z,44.39
2022-08-05T19:07:58.252Z,44.50
2022-08-05T19:10:28.677Z,44.46
2022-08-05T19:12:57.036Z,44.99
2022-08-05T19:15:58.765Z,45.28
2022-08-05T19:18:20.760Z,45.34
2022-08-05T19:20:52.509Z,45.38
2022-08-05T19:24:04.140Z,45.72
2022-08-05T19:26:09.516Z,45.96
2022-08-05T19:28:41.539Z,46.05
2022-08-05T19:31:12.973Z,46.01
2022-08-05T19:33:48.566Z,46.27
2022-08-05T19:36:25.588Z,45.85
2022-08-05T19:38:55.203Z,46.25
2022-08-05T19:41:34.714Z,46.28
2022-08-05T19:44:18.479Z,46.45
2022-08-05T19:46:46.980Z,46.36
2022-08-05T19:49:17.624Z,46.71
2022-08-05T19:52:04.791Z,47.26
2022-08-05T19:54:35.725Z,47.37
2022-08-05T19:57:09.084Z,47.54
2022-08-05T20:00:00.658Z,47.71
2022-08-05T20:02:27.541Z,47.89
2022-08-05T20:04:58.552Z,47.81
2022-08-05T20:07:47.503Z,48.37
2022-08-05T20:10:15.834Z,48.40
2022-08-05T20:12:48.298Z,48.56
2022-08-05T20:15:23.165Z,48.83
2022-08-05T20:18:10.532Z,48.81
2022-08-05T20:20:56.261Z,48.85
2022-08-05T20:23:42.285Z,48.92
2022-08-05T20:26:15.175Z,49.14
2022-08-05T20:28:45.334Z,49.01
2022-08-05T20:31:13.464Z,48.94
2022-08-05T20:33:44.754Z,48.93
2022-08-05T20:36:16.485Z,48.63
2022-08-05T20:38:53.377Z,49.22
2022-08-05T20:41:24.069Z,49.17
2022-08-05T20:43:58.590Z,49.23
2022-08-05T20:46:30.097Z,49.16
2022-08-05T20:48:58.106Z,49.42
2022-08-05T20:51:27.921Z,49.48
2022-08-05T20:53:57.135Z,49.44
2022-08-05T20:56:34.042Z,49.69
2022-08-05T20:59:11.384Z,49.76
2022-08-05T21:01:48.086Z,49.83
2022-08-05T21:04:18.688Z,50.09
2022-08-05T21:06:48.131Z,49.85
2022-08-05T21:09:16.196Z,49.99
2022-08-05T21:12:09.643Z,49.96
2022-08-05T21:14:34.884Z,50.16
2022-08-05T21:17:05.390Z,50.35
2022-08-05T21:19:47.311Z,50.51
2022-08-05T21:22:23.352Z,50.64
2022-08-05T21:24:52.780Z,50.43
2022-08-05T21:27:25.373Z,50.76
2022-08-05T21:29:56.083Z,50.82
2022-08-05T21:32:27.164Z,50.65
2022-08-05T21:35:09.104Z,50.75
2022-08-05T21:37:52.996Z,51.49
2022-08-05T21:40:22.203Z,51.34
2022-08-05T21:42:53.482Z,51.77
2022-08-05T21:45:24.497Z,51.35
2022-08-05T21:48:08.248Z,51.48
2022-08-05T21:50:36.772Z,51.68
2022-08-05T21:53:16.466Z,51.71
2022-08-05T21:56:04.909Z,51.89
2022-08-05T21:58:34.092Z,52.30
2022-08-05T22:01:05.721Z,52.10
2022-08-05T22:03:48.862Z,52.40
2022-08-05T22:06:22.564Z,52.12
2022-08-05T22:08:53.060Z,52.64
2022-08-05T22:11:34.948Z,52.85
2022-08-05T22:14:33.836Z,53.18
2022-08-05T22:16:56.035Z,53.32
2022-08-05T22:20:01.791Z,53.57
2022-08-05T22:22:12.883Z,53.44
2022-08-05T22:25:03.693Z,53.42
2022-08-05T22:28:11.057Z,53.55
2022-08-05T22:30:37.655Z,53.87
2022-08-05T22:33:56.543Z,53.69
2022-08-05T22:36:14.335Z,53.98
2022-08-05T22:38:43.287Z,53.85
2022-08-05T22:41:12.738Z,53.44
2022-08-05T22:43:43.183Z,53.19
2022-08-05T22:46:12.021Z,53.28
2022-08-05T22:48:41.413Z,53.88
2022-08-05T22:51:15.916Z,53.87
2022-08-05T22:53:51.884Z,53.52
2022-08-05T22:56:30.272Z,53.30
2022-08-05T22:58:59.997Z,53.10
2022-08-05T23:02:04.497Z,53.68
2022-08-05T23:04:19.280Z,53.74
2022-08-05T23:06:47.823Z,54.02
2022-08-05T23:09:27.570Z,53.99
2022-08-05T23:12:06.145Z,54.23
2022-08-05T23:14:34.144Z,54.73
2022-08-05T23:17:24.372Z,54.57
2022-08-05T23:20:02.272Z,54.47
2022-08-05T23:22:31.079Z,54.74
2022-08-05T23:24:59.816Z,54.61
2022-08-05T23:27:42.272Z,54.63
2022-08-05T23:30:11.900Z,54.47
2022-08-05T23:32:40.719Z,54.78
2022-08-05T23:35:13.268Z,54.87
2022-08-05T23:37:41.478Z,54.81
2022-08-05T23:40:12.095Z,55.32
2022-08-05T23:42:47.443Z,56.03
2022-08-05T23:45:23.739Z,56.85
2022-08-05T23:47:53.575Z,57.17
2022-08-05T23:50:22.116Z,57.15
2022-08-05T23:52:54.588Z,57.26
2022-08-05T23:55:24.728Z,57.77
2022-08-05T23:58:00.613Z,58.05
